sensor_id;sensor_type;location;lat;lon;timestamp;P1;durP1;ratioP1;P2;durP2;ratioP2
34184;SDS011;20454;48.100;11.776;2022-07-29T00:00:43;786.05;;;707.35;;
34184;SDS011;20454;48.100;11.776;2022-07-29T00:03:10;804.17;;;724.60;;
34184;SDS011;20454;48.100;11.776;2022-07-29T00:05:38;766.45;;;688.33;;
34184;SDS011;20454;48.100;11.776;2022-07-29T00:08:05;768.95;;;690.92;;
34184;SDS011;20454;48.100;11.776;2022-07-29T00:10:32;789.70;;;710.67;;
34184;SDS011;20454;48.100;11.776;2022-07-29T00:12:58;793.28;;;714.30;;
34184;SDS011;20454;48.100;11.776;2022-07-29T00:15:24;774.95;;;696.88;;
34184;SDS011;20454;48.100;11.776;2022-07-29T00:17:50;804.13;;;724.08;;
34184;SDS011;20454;48.100;11.776;2022-07-29T00:20:16;816.63;;;736.30;;
34184;SDS011;20454;48.100;11.776;2022-07-29T00:22:42;814.17;;;733.80;;
34184;SDS011;20454;48.100;11.776;2022-07-29T00:25:08;800.08;;;720.47;;
34184;SDS011;20454;48.100;11.776;2022-07-29T00:27:35;790.78;;;711.42;;
34184;SDS011;20454;48.100;11.776;2022-07-29T00:30:01;770.83;;;692.72;;
34184;SDS011;20454;48.100;11.776;2022-07-29T00:32:28;803.80;;;723.90;;
34184;SDS011;20454;48.100;11.776;2022-07-29T00:34:54;780.05;;;701.08;;
34184;SDS011;20454;48.100;11.776;2022-07-29T00:37:39;761.47;;;683.63;;
34184;SDS011;20454;48.100;11.776;2022-07-29T00:40:05;779.17;;;700.53;;
34184;SDS011;20454;48.100;11.776;2022-07-29T00:42:45;773.00;;;694.45;;
34184;SDS011;20454;48.100;11.776;2022-07-29T00:45:14;751.63;;;673.70;;
34184;SDS011;20454;48.100;11.776;2022-07-29T00:47:40;739.95;;;662.70;;
34184;SDS011;20454;48.100;11.776;2022-07-29T00:50:07;712.33;;;636.67;;
34184;SDS011;20454;48.100;11.776;2022-07-29T00:52:35;738.58;;;661.85;;
34184;SDS011;20454;48.100;11.776;2022-07-29T00:55:03;708.50;;;633.05;;
34184;SDS011;20454;48.100;11.776;2022-07-29T00:57:31;722.33;;;646.75;;
34184;SDS011;20454;48.100;11.776;2022-07-29T00:59:57;701.70;;;626.70;;
34184;SDS011;20454;48.100;11.776;2022-07-29T01:02:23;758.97;;;681.60;;
34184;SDS011;20454;48.100;11.776;2022-07-29T01:04:49;764.75;;;687.00;;
34184;SDS011;20454;48.100;11.776;2022-07-29T01:07:15;742.15;;;665.40;;
34184;SDS011;20454;48.100;11.776;2022-07-29T01:09:43;704.67;;;629.13;;
34184;SDS011;20454;48.100;11.776;2022-07-29T01:12:11;735.75;;;659.20;;
34184;SDS011;20454;48.100;11.776;2022-07-29T01:14:47;720.50;;;644.33;;
34184;SDS011;20454;48.100;11.776;2022-07-29T01:17:15;732.35;;;655.03;;
34184;SDS011;20454;48.100;11.776;2022-07-29T01:19:49;759.55;;;681.22;;
34184;SDS011;20454;48.100;11.776;2022-07-29T01:25:17;720.72;;;644.22;;
34184;SDS011;20454;48.100;11.776;2022-07-29T01:31:19;695.00;;;619.97;;
34184;SDS011;20454;48.100;11.776;2022-07-29T01:34:17;696.47;;;621.33;;
34184;SDS011;20454;48.100;11.776;2022-07-29T01:37:06;692.58;;;617.67;;
34184;SDS011;20454;48.100;11.776;2022-07-29T01:39:59;687.35;;;612.47;;
34184;SDS011;20454;48.100;11.776;2022-07-29T01:45:15;681.30;;;606.90;;
34184;SDS011;20454;48.100;11.776;2022-07-29T01:48:02;666.40;;;592.20;;
34184;SDS011;20454;48.100;11.776;2022-07-29T01:53:59;663.92;;;582.13;;
34184;SDS011;20454;48.100;11.776;2022-07-29T01:56:30;658.13;;;579.45;;
34184;SDS011;20454;48.100;11.776;2022-07-29T01:58:58;664.65;;;591.05;;
34184;SDS011;20454;48.100;11.776;2022-07-29T04:31:44;575.10;;;400.08;;
34184;SDS011;20454;48.100;11.776;2022-07-29T04:34:10;568.55;;;395.80;;
34184;SDS011;20454;48.100;11.776;2022-07-29T04:36:36;568.63;;;394.13;;
34184;SDS011;20454;48.100;11.776;2022-07-29T04:39:02;561.47;;;391.08;;
34184;SDS011;20454;48.100;11.776;2022-07-29T04:41:29;567.25;;;394.17;;
34184;SDS011;20454;48.100;11.776;2022-07-29T04:43:55;575.60;;;415.98;;
34184;SDS011;20454;48.100;11.776;2022-07-29T04:46:21;573.20;;;403.45;;
34184;SDS011;20454;48.100;11.776;2022-07-29T04:48:47;569.20;;;401.95;;
34184;SDS011;20454;48.100;11.776;2022-07-29T04:51:16;575.80;;;415.25;;
34184;SDS011;20454;48.100;11.776;2022-07-29T04:53:42;568.10;;;397.25;;
34184;SDS011;20454;48.100;11.776;2022-07-29T04:56:08;576.75;;;413.30;;
34184;SDS011;20454;48.100;11.776;2022-07-29T04:58:34;573.45;;;413.27;;
34184;SDS011;20454;48.100;11.776;2022-07-29T05:01:00;576.90;;;423.50;;
34184;SDS011;20454;48.100;11.776;2022-07-29T05:03:27;572.17;;;412.13;;
34184;SDS011;20454;48.100;11.776;2022-07-29T05:05:52;571.63;;;416.33;;
34184;SDS011;20454;48.100;11.776;2022-07-29T05:08:18;581.47;;;433.02;;
34184;SDS011;20454;48.100;11.776;2022-07-29T05:10:44;588.97;;;450.30;;
34184;SDS011;20454;48.100;11.776;2022-07-29T05:13:10;592.20;;;456.95;;
34184;SDS011;20454;48.100;11.776;2022-07-29T05:15:36;607.55;;;482.55;;
34184;SDS011;20454;48.100;11.776;2022-07-29T05:18:03;607.00;;;486.55;;
34184;SDS011;20454;48.100;11.776;2022-07-29T05:20:29;603.90;;;477.75;;
34184;SDS011;20454;48.100;11.776;2022-07-29T05:22:56;616.40;;;499.02;;
34184;SDS011;20454;48.100;11.776;2022-07-29T05:25:24;644.13;;;559.72;;
34184;SDS011;20454;48.100;11.776;2022-07-29T05:27:51;850.80;;;764.58;;
34184;SDS011;20454;48.100;11.776;2022-07-29T05:30:17;688.78;;;612.83;;
34184;SDS011;20454;48.100;11.776;2022-07-29T05:32:44;676.15;;;597.63;;
34184;SDS011;20454;48.100;11.776;2022-07-29T05:35:10;663.28;;;572.28;;
34184;SDS011;20454;48.100;11.776;2022-07-29T05:37:37;646.70;;;552.80;;
34184;SDS011;20454;48.100;11.776;2022-07-29T05:40:03;648.28;;;547.72;;
34184;SDS011;20454;48.100;11.776;2022-07-29T05:42:30;643.22;;;544.97;;
34184;SDS011;20454;48.100;11.776;2022-07-29T05:44:56;657.85;;;567.78;;
34184;SDS011;20454;48.100;11.776;2022-07-29T05:47:22;652.33;;;568.88;;
34184;SDS011;20454;48.100;11.776;2022-07-29T05:49:49;646.85;;;560.47;;
34184;SDS011;20454;48.100;11.776;2022-07-29T07:33:00;610.75;;;513.45;;
34184;SDS011;20454;48.100;11.776;2022-07-29T07:35:26;551.85;;;451.42;;
34184;SDS011;20454;48.100;11.776;2022-07-29T07:37:52;630.00;;;525.17;;
34184;SDS011;20454;48.100;11.776;2022-07-29T07:40:20;651.92;;;540.45;;
34184;SDS011;20454;48.100;11.776;2022-07-29T07:42:45;701.35;;;627.47;;
34184;SDS011;20454;48.100;11.776;2022-07-29T07:45:11;642.58;;;571.67;;
34184;SDS011;20454;48.100;11.776;2022-07-29T07:47:37;668.90;;;597.33;;
34184;SDS011;20454;48.100;11.776;2022-07-29T07:50:04;675.95;;;604.00;;
34184;SDS011;20454;48.100;11.776;2022-07-29T07:52:32;639.88;;;567.58;;
34184;SDS011;20454;48.100;11.776;2022-07-29T07:54:58;658.63;;;587.95;;
34184;SDS011;20454;48.100;11.776;2022-07-29T07:57:25;651.67;;;581.28;;
34184;SDS011;20454;48.100;11.776;2022-07-29T07:59:51;613.20;;;536.90;;
34184;SDS011;20454;48.100;11.776;2022-07-29T08:02:17;641.97;;;572.45;;
34184;SDS011;20454;48.100;11.776;2022-07-29T08:04:43;652.33;;;582.70;;
34184;SDS011;20454;48.100;11.776;2022-07-29T08:07:09;732.70;;;658.97;;
34184;SDS011;20454;48.100;11.776;2022-07-29T08:09:35;698.35;;;626.25;;
34184;SDS011;20454;48.100;11.776;2022-07-29T08:12:01;686.38;;;615.17;;
34184;SDS011;20454;48.100;11.776;2022-07-29T08:14:29;798.20;;;721.28;;
34184;SDS011;20454;48.100;11.776;2022-07-29T08:16:55;761.75;;;686.35;;
34184;SDS011;20454;48.100;11.776;2022-07-29T08:19:21;801.25;;;724.38;;
34184;SDS011;20454;48.100;11.776;2022-07-29T08:21:47;796.70;;;720.25;;
34184;SDS011;20454;48.100;11.776;2022-07-29T08:24:12;677.78;;;607.05;;
34184;SDS011;20454;48.100;11.776;2022-07-29T08:26:57;660.05;;;589.78;;
34184;SDS011;20454;48.100;11.776;2022-07-29T08:29:22;792.60;;;716.08;;
34184;SDS011;20454;48.100;11.776;2022-07-29T08:31:48;728.67;;;655.75;;
34184;SDS011;20454;48.100;11.776;2022-07-29T08:34:14;701.85;;;630.03;;
34184;SDS011;20454;48.100;11.776;2022-07-29T08:36:40;690.97;;;620.17;;
34184;SDS011;20454;48.100;11.776;2022-07-29T08:39:05;722.30;;;649.67;;
34184;SDS011;20454;48.100;11.776;2022-07-29T08:41:31;595.72;;;510.80;;
34184;SDS011;20454;48.100;11.776;2022-07-29T08:43:57;592.13;;;506.02;;
34184;SDS011;20454;48.100;11.776;2022-07-29T08:46:23;588.05;;;492.35;;
34184;SDS011;20454;48.100;11.776;2022-07-29T08:48:49;590.47;;;493.58;;
34184;SDS011;20454;48.100;11.776;2022-07-29T08:51:16;570.53;;;431.20;;
34184;SDS011;20454;48.100;11.776;2022-07-29T08:53:44;576.03;;;474.48;;
34184;SDS011;20454;48.100;11.776;2022-07-29T08:56:13;570.85;;;467.95;;
34184;SDS011;20454;48.100;11.776;2022-07-29T08:58:44;590.65;;;484.42;;
34184;SDS011;20454;48.100;11.776;2022-07-29T09:01:13;585.63;;;479.83;;
34184;SDS011;20454;48.100;11.776;2022-07-29T09:03:45;552.95;;;421.65;;
34184;SDS011;20454;48.100;11.776;2022-07-29T09:06:13;544.88;;;401.23;;
34184;SDS011;20454;48.100;11.776;2022-07-29T09:08:41;528.45;;;344.05;;
34184;SDS011;20454;48.100;11.776;2022-07-29T09:11:08;542.13;;;391.70;;
34184;SDS011;20454;48.100;11.776;2022-07-29T09:13:36;545.72;;;392.10;;
34184;SDS011;20454;48.100;11.776;2022-07-29T09:16:02;550.33;;;410.35;;
34184;SDS011;20454;48.100;11.776;2022-07-29T09:18:38;586.97;;;513.58;;
34184;SDS011;20454;48.100;11.776;2022-07-29T09:21:08;568.65;;;460.95;;
34184;SDS011;20454;48.100;11.776;2022-07-29T09:26:32;509.58;;;312.25;;
34184;SDS011;20454;48.100;11.776;2022-07-29T09:29:09;567.50;;;473.58;;
34184;SDS011;20454;48.100;11.776;2022-07-29T09:31:44;530.53;;;362.13;;
34184;SDS011;20454;48.100;11.776;2022-07-29T09:34:13;546.53;;;416.95;;
34184;SDS011;20454;48.100;11.776;2022-07-29T09:36:42;5.10;;;1.67;;
34184;SDS011;20454;48.100;11.776;2022-07-29T09:39:11;462.55;;;426.60;;
34184;SDS011;20454;48.100;11.776;2022-07-29T09:41:52;1055.68;;;963.85;;
34184;SDS011;20454;48.100;11.776;2022-07-29T09:44:21;1027.13;;;934.67;;
34184;SDS011;20454;48.100;11.776;2022-07-29T09:47:00;971.08;;;892.17;;
34184;SDS011;20454;48.100;11.776;2022-07-29T09:49:35;975.95;;;894.78;;
34184;SDS011;20454;48.100;11.776;2022-07-29T09:52:26;912.00;;;838.35;;
34184;SDS011;20454;48.100;11.776;2022-07-29T09:55:04;1016.60;;;932.83;;
34184;SDS011;20454;48.100;11.776;2022-07-29T09:57:34;807.22;;;747.85;;
34184;SDS011;20454;48.100;11.776;2022-07-29T10:00:01;757.30;;;698.20;;
34184;SDS011;20454;48.100;11.776;2022-07-29T10:02:40;934.15;;;851.08;;
34184;SDS011;20454;48.100;11.776;2022-07-29T10:05:16;933.45;;;850.00;;
34184;SDS011;20454;48.100;11.776;2022-07-29T10:07:51;919.10;;;836.08;;
34184;SDS011;20454;48.100;11.776;2022-07-29T10:12:59;843.97;;;768.03;;
34184;SDS011;20454;48.100;11.776;2022-07-29T10:15:32;849.03;;;770.78;;
34184;SDS011;20454;48.100;11.776;2022-07-29T10:18:04;880.47;;;803.30;;
34184;SDS011;20454;48.100;11.776;2022-07-29T10:20:32;440.42;;;411.27;;
34184;SDS011;20454;48.100;11.776;2022-07-29T10:22:58;798.08;;;744.47;;
34184;SDS011;20454;48.100;11.776;2022-07-29T10:25:24;270.02;;;254.00;;
34184;SDS011;20454;48.100;11.776;2022-07-29T10:27:51;369.48;;;336.50;;
34184;SDS011;20454;48.100;11.776;2022-07-29T10:30:18;154.52;;;143.95;;
34184;SDS011;20454;48.100;11.776;2022-07-29T10:43:51;954.53;;;871.72;;
34184;SDS011;20454;48.100;11.776;2022-07-29T10:46:26;410.08;;;385.80;;
34184;SDS011;20454;48.100;11.776;2022-07-29T10:49:08;812.10;;;734.78;;
34184;SDS011;20454;48.100;11.776;2022-07-29T11:05:07;853.30;;;772.55;;
34184;SDS011;20454;48.100;11.776;2022-07-29T11:07:36;868.55;;;787.45;;
34184;SDS011;20454;48.100;11.776;2022-07-29T11:15:15;2.35;;;1.55;;
34184;SDS011;20454;48.100;11.776;2022-07-29T11:31:42;376.13;;;351.92;;
34184;SDS011;20454;48.100;11.776;2022-07-29T11:34:27;789.60;;;716.80;;
34184;SDS011;20454;48.100;11.776;2022-07-29T11:37:30;791.13;;;725.85;;
34184;SDS011;20454;48.100;11.776;2022-07-29T11:47:35;2.00;;;0.80;;
34184;SDS011;20454;48.100;11.776;2022-07-29T11:50:12;1.35;;;1.25;;
34184;SDS011;20454;48.100;11.776;2022-07-29T11:52:43;1.20;;;0.93;;
34184;SDS011;20454;48.100;11.776;2022-07-29T11:55:21;4.22;;;1.73;;
34184;SDS011;20454;48.100;11.776;2022-07-29T11:57:48;552.80;;;510.30;;
34184;SDS011;20454;48.100;11.776;2022-07-29T12:00:28;1.65;;;1.30;;
34184;SDS011;20454;48.100;11.776;2022-07-29T12:02:56;953.53;;;871.38;;
34184;SDS011;20454;48.100;11.776;2022-07-29T12:05:42;698.72;;;645.20;;
34184;SDS011;20454;48.100;11.776;2022-07-29T12:08:16;390.38;;;358.80;;
34184;SDS011;20454;48.100;11.776;2022-07-29T12:10:47;19.40;;;18.27;;
34184;SDS011;20454;48.100;11.776;2022-07-29T12:13:15;1.25;;;1.15;;
34184;SDS011;20454;48.100;11.776;2022-07-29T12:15:51;3.25;;;1.38;;
34184;SDS011;20454;48.100;11.776;2022-07-29T12:18:19;1.95;;;1.38;;
34184;SDS011;20454;48.100;11.776;2022-07-29T12:20:46;1.30;;;0.82;;
34184;SDS011;20454;48.100;11.776;2022-07-29T12:23:13;0.80;;;0.80;;
34184;SDS011;20454;48.100;11.776;2022-07-29T12:25:41;6.57;;;1.23;;
34184;SDS011;20454;48.100;11.776;2022-07-29T12:28:09;2.45;;;1.38;;
34184;SDS011;20454;48.100;11.776;2022-07-29T12:30:42;3.08;;;1.02;;
34184;SDS011;20454;48.100;11.776;2022-07-29T12:33:12;0.90;;;0.90;;
34184;SDS011;20454;48.100;11.776;2022-07-29T12:35:41;2.95;;;1.10;;
34184;SDS011;20454;48.100;11.776;2022-07-29T12:38:14;2.03;;;1.20;;
34184;SDS011;20454;48.100;11.776;2022-07-29T12:40:41;1.25;;;1.13;;
34184;SDS011;20454;48.100;11.776;2022-07-29T12:43:09;15.30;;;14.57;;
34184;SDS011;20454;48.100;11.776;2022-07-29T12:45:43;1.40;;;1.00;;
34184;SDS011;20454;48.100;11.776;2022-07-29T12:48:11;1.10;;;1.00;;
34184;SDS011;20454;48.100;11.776;2022-07-29T12:50:54;1.40;;;1.30;;
34184;SDS011;20454;48.100;11.776;2022-07-29T12:53:26;2.13;;;1.17;;
34184;SDS011;20454;48.100;11.776;2022-07-29T12:55:53;1.15;;;1.00;;
34184;SDS011;20454;48.100;11.776;2022-07-29T12:58:37;1.20;;;1.10;;
34184;SDS011;20454;48.100;11.776;2022-07-29T13:01:07;3.35;;;1.33;;
34184;SDS011;20454;48.100;11.776;2022-07-29T13:03:49;1.95;;;1.10;;
34184;SDS011;20454;48.100;11.776;2022-07-29T16:20:38;1.63;;;1.40;;
34184;SDS011;20454;48.100;11.776;2022-07-29T16:23:05;1.60;;;1.15;;
34184;SDS011;20454;48.100;11.776;2022-07-29T16:25:33;1.42;;;1.33;;
34184;SDS011;20454;48.100;11.776;2022-07-29T16:28:00;3.15;;;1.25;;
34184;SDS011;20454;48.100;11.776;2022-07-29T16:30:26;3.03;;;1.63;;
34184;SDS011;20454;48.100;11.776;2022-07-29T16:32:52;2.03;;;1.65;;
34184;SDS011;20454;48.100;11.776;2022-07-29T16:35:17;2.03;;;1.60;;
34184;SDS011;20454;48.100;11.776;2022-07-29T16:37:43;2.58;;;1.90;;
34184;SDS011;20454;48.100;11.776;2022-07-29T16:40:09;2.33;;;1.45;;
34184;SDS011;20454;48.100;11.776;2022-07-29T16:42:35;5.45;;;1.95;;
34184;SDS011;20454;48.100;11.776;2022-07-29T16:45:06;4.35;;;1.50;;
34184;SDS011;20454;48.100;11.776;2022-07-29T16:47:33;3.10;;;1.70;;
34184;SDS011;20454;48.100;11.776;2022-07-29T16:49:59;5.35;;;1.70;;
34184;SDS011;20454;48.100;11.776;2022-07-29T16:52:24;3.80;;;1.70;;
34184;SDS011;20454;48.100;11.776;2022-07-29T16:54:50;2.00;;;1.75;;
34184;SDS011;20454;48.100;11.776;2022-07-29T16:57:16;2.90;;;1.95;;
34184;SDS011;20454;48.100;11.776;2022-07-29T16:59:42;6.97;;;1.95;;
34184;SDS011;20454;48.100;11.776;2022-07-29T18:09:30;1.40;;;1.30;;
34184;SDS011;20454;48.100;11.776;2022-07-29T18:11:56;2.17;;;1.15;;
34184;SDS011;20454;48.100;11.776;2022-07-29T18:14:22;1.10;;;1.00;;
34184;SDS011;20454;48.100;11.776;2022-07-29T18:16:48;1.20;;;1.10;;
34184;SDS011;20454;48.100;11.776;2022-07-29T18:19:13;1.50;;;0.98;;
34184;SDS011;20454;48.100;11.776;2022-07-29T18:21:40;3.10;;;1.15;;
34184;SDS011;20454;48.100;11.776;2022-07-29T18:24:05;4.35;;;0.80;;
34184;SDS011;20454;48.100;11.776;2022-07-29T18:26:32;0.95;;;0.88;;
34184;SDS011;20454;48.100;11.776;2022-07-29T18:28:58;1.10;;;1.00;;
34184;SDS011;20454;48.100;11.776;2022-07-29T18:31:23;0.80;;;0.80;;
34184;SDS011;20454;48.100;11.776;2022-07-29T18:33:49;1.23;;;1.13;;
34184;SDS011;20454;48.100;11.776;2022-07-29T18:36:15;0.98;;;0.75;;
34184;SDS011;20454;48.100;11.776;2022-07-29T18:38:41;1.00;;;0.90;;
34184;SDS011;20454;48.100;11.776;2022-07-29T18:41:07;1.13;;;0.95;;
34184;SDS011;20454;48.100;11.776;2022-07-29T18:43:33;2.05;;;1.10;;
34184;SDS011;20454;48.100;11.776;2022-07-29T18:45:59;0.90;;;0.90;;
34184;SDS011;20454;48.100;11.776;2022-07-29T18:48:25;1.00;;;0.80;;
34184;SDS011;20454;48.100;11.776;2022-07-29T18:50:51;1.85;;;0.88;;
34184;SDS011;20454;48.100;11.776;2022-07-29T18:53:17;0.93;;;0.90;;
34184;SDS011;20454;48.100;11.776;2022-07-29T18:55:43;1.50;;;1.40;;
34184;SDS011;20454;48.100;11.776;2022-07-29T18:58:09;0.70;;;0.70;;
34184;SDS011;20454;48.100;11.776;2022-07-29T19:00:34;1.33;;;0.70;;
34184;SDS011;20454;48.100;11.776;2022-07-29T19:03:01;0.85;;;0.82;;
34184;SDS011;20454;48.100;11.776;2022-07-29T19:05:27;1.08;;;0.95;;
34184;SDS011;20454;48.100;11.776;2022-07-29T19:07:53;1.05;;;0.80;;
34184;SDS011;20454;48.100;11.776;2022-07-29T19:10:20;0.73;;;0.73;;
34184;SDS011;20454;48.100;11.776;2022-07-29T19:12:46;1.10;;;1.00;;
34184;SDS011;20454;48.100;11.776;2022-07-29T19:15:12;1.30;;;0.70;;
34184;SDS011;20454;48.100;11.776;2022-07-29T19:17:38;1.00;;;0.90;;
34184;SDS011;20454;48.100;11.776;2022-07-29T19:20:04;0.98;;;0.88;;
34184;SDS011;20454;48.100;11.776;2022-07-29T19:22:31;2.45;;;1.33;;
34184;SDS011;20454;48.100;11.776;2022-07-29T19:24:57;1.60;;;1.25;;
34184;SDS011;20454;48.100;11.776;2022-07-29T19:27:23;1.25;;;1.15;;
34184;SDS011;20454;48.100;11.776;2022-07-29T19:29:49;0.80;;;0.80;;
34184;SDS011;20454;48.100;11.776;2022-07-29T19:32:15;1.15;;;1.05;;
34184;SDS011;20454;48.100;11.776;2022-07-29T19:34:41;1.20;;;0.90;;
34184;SDS011;20454;48.100;11.776;2022-07-29T19:37:27;0.95;;;0.95;;
34184;SDS011;20454;48.100;11.776;2022-07-29T19:39:53;1.77;;;1.10;;
34184;SDS011;20454;48.100;11.776;2022-07-29T19:42:18;0.90;;;0.77;;
34184;SDS011;20454;48.100;11.776;2022-07-29T19:44:44;3.35;;;1.13;;
34184;SDS011;20454;48.100;11.776;2022-07-29T19:47:10;2.35;;;1.13;;
34184;SDS011;20454;48.100;11.776;2022-07-29T19:49:35;1.75;;;1.25;;
34184;SDS011;20454;48.100;11.776;2022-07-29T19:52:03;1.13;;;1.02;;
34184;SDS011;20454;48.100;11.776;2022-07-29T19:54:29;1.38;;;1.27;;
34184;SDS011;20454;48.100;11.776;2022-07-29T19:56:55;1.60;;;1.50;;
34184;SDS011;20454;48.100;11.776;2022-07-29T19:59:21;1.95;;;1.63;;
34184;SDS011;20454;48.100;11.776;2022-07-29T20:01:46;5.97;;;1.38;;
34184;SDS011;20454;48.100;11.776;2022-07-29T20:04:12;2.45;;;1.30;;
34184;SDS011;20454;48.100;11.776;2022-07-29T20:06:38;2.22;;;1.30;;
34184;SDS011;20454;48.100;11.776;2022-07-29T20:09:04;1.50;;;1.40;;
34184;SDS011;20454;48.100;11.776;2022-07-29T20:11:30;1.42;;;1.33;;
34184;SDS011;20454;48.100;11.776;2022-07-29T20:14:00;1.50;;;1.40;;
34184;SDS011;20454;48.100;11.776;2022-07-29T20:16:29;1.27;;;1.25;;
34184;SDS011;20454;48.100;11.776;2022-07-29T20:18:56;1.80;;;1.58;;
34184;SDS011;20454;48.100;11.776;2022-07-29T20:21:22;2.40;;;0.90;;
34184;SDS011;20454;48.100;11.776;2022-07-29T20:23:50;2.45;;;1.60;;
34184;SDS011;20454;48.100;11.776;2022-07-29T20:26:17;1.50;;;0.90;;
34184;SDS011;20454;48.100;11.776;2022-07-29T20:28:43;1.33;;;1.17;;
34184;SDS011;20454;48.100;11.776;2022-07-29T20:31:09;1.42;;;1.27;;
34184;SDS011;20454;48.100;11.776;2022-07-29T20:33:35;1.83;;;1.40;;
34184;SDS011;20454;48.100;11.776;2022-07-29T20:36:01;8.77;;;1.40;;
34184;SDS011;20454;48.100;11.776;2022-07-29T20:38:27;1.70;;;1.60;;
34184;SDS011;20454;48.100;11.776;2022-07-29T20:40:54;1.30;;;1.05;;
34184;SDS011;20454;48.100;11.776;2022-07-29T20:43:22;1.20;;;1.10;;
34184;SDS011;20454;48.100;11.776;2022-07-29T20:45:50;1.45;;;1.00;;
34184;SDS011;20454;48.100;11.776;2022-07-29T20:48:15;1.30;;;1.20;;
34184;SDS011;20454;48.100;11.776;2022-07-29T20:50:41;1.77;;;1.45;;
34184;SDS011;20454;48.100;11.776;2022-07-29T20:53:09;1.88;;;1.20;;
34184;SDS011;20454;48.100;11.776;2022-07-29T20:55:35;1.63;;;1.40;;
34184;SDS011;20454;48.100;11.776;2022-07-29T20:58:01;3.75;;;2.17;;
34184;SDS011;20454;48.100;11.776;2022-07-29T21:00:26;3.40;;;1.23;;
34184;SDS011;20454;48.100;11.776;2022-07-29T21:02:52;1.60;;;1.23;;
34184;SDS011;20454;48.100;11.776;2022-07-29T21:05:18;1.63;;;1.00;;
34184;SDS011;20454;48.100;11.776;2022-07-29T21:07:44;1.60;;;1.23;;
34184;SDS011;20454;48.100;11.776;2022-07-29T21:10:10;1.35;;;1.15;;
34184;SDS011;20454;48.100;11.776;2022-07-29T21:12:38;2.20;;;1.00;;
34184;SDS011;20454;48.100;11.776;2022-07-29T21:15:03;1.42;;;1.33;;
34184;SDS011;20454;48.100;11.776;2022-07-29T21:17:30;1.48;;;1.10;;
34184;SDS011;20454;48.100;11.776;2022-07-29T21:20:00;1.40;;;1.30;;
34184;SDS011;20454;48.100;11.776;2022-07-29T21:22:28;1.33;;;1.23;;
34184;SDS011;20454;48.100;11.776;2022-07-29T21:24:54;2.20;;;1.20;;
34184;SDS011;20454;48.100;11.776;2022-07-29T21:27:19;1.52;;;1.42;;
34184;SDS011;20454;48.100;11.776;2022-07-29T21:30:04;1.42;;;1.33;;
34184;SDS011;20454;48.100;11.776;2022-07-29T21:32:31;3.72;;;1.48;;
34184;SDS011;20454;48.100;11.776;2022-07-29T21:34:58;1.33;;;1.23;;
34184;SDS011;20454;48.100;11.776;2022-07-29T21:37:23;2.72;;;1.40;;
34184;SDS011;20454;48.100;11.776;2022-07-29T21:39:49;35.85;;;31.33;;
34184;SDS011;20454;48.100;11.776;2022-07-29T21:42:15;3.45;;;1.85;;
34184;SDS011;20454;48.100;11.776;2022-07-29T21:44:41;1.83;;;1.73;;
34184;SDS011;20454;48.100;11.776;2022-07-29T21:47:07;3.67;;;1.50;;
34184;SDS011;20454;48.100;11.776;2022-07-29T21:49:34;1.75;;;1.42;;
34184;SDS011;20454;48.100;11.776;2022-07-29T21:52:00;1.40;;;1.30;;
34184;SDS011;20454;48.100;11.776;2022-07-29T21:54:26;1.83;;;1.65;;
34184;SDS011;20454;48.100;11.776;2022-07-29T21:56:51;2.15;;;2.05;;
34184;SDS011;20454;48.100;11.776;2022-07-29T21:59:17;1.63;;;1.52;;
34184;SDS011;20454;48.100;11.776;2022-07-29T22:01:43;2.75;;;2.00;;
34184;SDS011;20454;48.100;11.776;2022-07-29T22:04:09;1.45;;;1.35;;
34184;SDS011;20454;48.100;11.776;2022-07-29T22:06:35;1.65;;;1.27;;
34184;SDS011;20454;48.100;11.776;2022-07-29T22:09:01;1.58;;;1.48;;
34184;SDS011;20454;48.100;11.776;2022-07-29T22:11:27;1.42;;;1.33;;
34184;SDS011;20454;48.100;11.776;2022-07-29T22:13:53;1.67;;;1.23;;
34184;SDS011;20454;48.100;11.776;2022-07-29T22:16:18;1.13;;;1.13;;
34184;SDS011;20454;48.100;11.776;2022-07-29T22:18:44;1.27;;;1.20;;
34184;SDS011;20454;48.100;11.776;2022-07-29T22:21:12;3.58;;;1.20;;
34184;SDS011;20454;48.100;11.776;2022-07-29T22:23:39;1.95;;;1.75;;
34184;SDS011;20454;48.100;11.776;2022-07-29T22:26:05;1.90;;;1.40;;
34184;SDS011;20454;48.100;11.776;2022-07-29T22:28:31;2.45;;;1.02;;
34184;SDS011;20454;48.100;11.776;2022-07-29T22:30:57;1.50;;;1.40;;
34184;SDS011;20454;48.100;11.776;2022-07-29T22:33:22;1.95;;;1.10;;
34184;SDS011;20454;48.100;11.776;2022-07-29T22:35:48;1.08;;;0.98;;
34184;SDS011;20454;48.100;11.776;2022-07-29T22:38:15;1.45;;;1.38;;
34184;SDS011;20454;48.100;11.776;2022-07-29T22:40:42;1.27;;;1.17;;
34184;SDS011;20454;48.100;11.776;2022-07-29T22:43:08;2.70;;;1.02;;
34184;SDS011;20454;48.100;11.776;2022-07-29T22:45:33;1.88;;;1.77;;
34184;SDS011;20454;48.100;11.776;2022-07-29T22:47:59;2.80;;;1.60;;
34184;SDS011;20454;48.100;11.776;2022-07-29T22:50:25;1.95;;;1.35;;
34184;SDS011;20454;48.100;11.776;2022-07-29T22:52:51;1.33;;;1.20;;
34184;SDS011;20454;48.100;11.776;2022-07-29T22:55:16;1.20;;;1.10;;
34184;SDS011;20454;48.100;11.776;2022-07-29T22:57:42;1.75;;;1.35;;
34184;SDS011;20454;48.100;11.776;2022-07-29T23:00:08;2.22;;;1.02;;
34184;SDS011;20454;48.100;11.776;2022-07-29T23:02:35;2.53;;;1.02;;
34184;SDS011;20454;48.100;11.776;2022-07-29T23:05:01;1.33;;;1.08;;
34184;SDS011;20454;48.100;11.776;2022-07-29T23:07:27;1.10;;;1.00;;
34184;SDS011;20454;48.100;11.776;2022-07-29T23:09:53;1.58;;;1.40;;
34184;SDS011;20454;48.100;11.776;2022-07-29T23:12:19;4.80;;;1.00;;
34184;SDS011;20454;48.100;11.776;2022-07-29T23:14:45;2.05;;;1.20;;
34184;SDS011;20454;48.100;11.776;2022-07-29T23:17:10;1.33;;;1.23;;
34184;SDS011;20454;48.100;11.776;2022-07-29T23:19:36;1.92;;;1.35;;
34184;SDS011;20454;48.100;11.776;2022-07-29T23:22:02;1.15;;;1.10;;
34184;SDS011;20454;48.100;11.776;2022-07-29T23:24:27;0.93;;;0.82;;
34184;SDS011;20454;48.100;11.776;2022-07-29T23:26:53;2.22;;;1.27;;
34184;SDS011;20454;48.100;11.776;2022-07-29T23:29:19;1.38;;;1.10;;
34184;SDS011;20454;48.100;11.776;2022-07-29T23:31:45;1.50;;;1.40;;
34184;SDS011;20454;48.100;11.776;2022-07-29T23:34:10;1.20;;;1.10;;
34184;SDS011;20454;48.100;11.776;2022-07-29T23:36:36;2.15;;;1.55;;
34184;SDS011;20454;48.100;11.776;2022-07-29T23:39:02;1.27;;;1.00;;
34184;SDS011;20454;48.100;11.776;2022-07-29T23:41:31;3.72;;;1.48;;
34184;SDS011;20454;48.100;11.776;2022-07-29T23:43:57;1.05;;;0.95;;
34184;SDS011;20454;48.100;11.776;2022-07-29T23:46:22;2.03;;;0.90;;
34184;SDS011;20454;48.100;11.776;2022-07-29T23:48:48;1.33;;;1.10;;
34184;SDS011;20454;48.100;11.776;2022-07-29T23:51:14;2.97;;;1.05;;
34184;SDS011;20454;48.100;11.776;2022-07-29T23:53:40;1.27;;;0.93;;
34184;SDS011;20454;48.100;11.776;2022-07-29T23:56:05;1.35;;;0.93;;
34184;SDS011;20454;48.100;11.776;2022-07-29T23:58:31;1.38;;;1.27;;
